sensor_id;sensor_type;location;lat;lon;timestamp;P1;durP1;ratioP1;P2;durP2;ratioP2
49948;SDS011;35840;45.982;8.890;2022-11-20T00:01:19;1.02;;;0.73;;
49948;SDS011;35840;45.982;8.890;2022-11-20T00:03:47;1.38;;;0.98;;
49948;SDS011;35840;45.982;8.890;2022-11-20T00:06:16;3.17;;;1.65;;
49948;SDS011;35840;45.982;8.890;2022-11-20T00:08:44;1.55;;;1.00;;
49948;SDS011;35840;45.982;8.890;2022-11-20T00:11:19;1.45;;;1.20;;
49948;SDS011;35840;45.982;8.890;2022-11-20T00:13:47;3.17;;;1.80;;
49948;SDS011;35840;45.982;8.890;2022-11-20T00:16:16;3.70;;;1.60;;
49948;SDS011;35840;45.982;8.890;2022-11-20T00:18:44;1.05;;;0.95;;
49948;SDS011;35840;45.982;8.890;2022-11-20T00:21:15;5.35;;;1.25;;
49948;SDS011;35840;45.982;8.890;2022-11-20T00:23:48;1.42;;;1.10;;
49948;SDS011;35840;45.982;8.890;2022-11-20T00:26:16;1.33;;;0.98;;
49948;SDS011;35840;45.982;8.890;2022-11-20T00:28:44;1.42;;;1.25;;
49948;SDS011;35840;45.982;8.890;2022-11-20T00:31:16;4.72;;;1.33;;
49948;SDS011;35840;45.982;8.890;2022-11-20T00:33:44;2.63;;;1.40;;
49948;SDS011;35840;45.982;8.890;2022-11-20T00:36:15;2.72;;;1.30;;
49948;SDS011;35840;45.982;8.890;2022-11-20T00:38:43;1.73;;;1.10;;
49948;SDS011;35840;45.982;8.890;2022-11-20T00:41:12;4.05;;;1.50;;
49948;SDS011;35840;45.982;8.890;2022-11-20T00:43:40;1.80;;;1.40;;
49948;SDS011;35840;45.982;8.890;2022-11-20T00:46:09;3.97;;;2.22;;
49948;SDS011;35840;45.982;8.890;2022-11-20T00:48:39;2.47;;;1.58;;
49948;SDS011;35840;45.982;8.890;2022-11-20T00:51:06;0.93;;;0.75;;
49948;SDS011;35840;45.982;8.890;2022-11-20T00:53:34;1.52;;;1.13;;
49948;SDS011;35840;45.982;8.890;2022-11-20T00:56:02;1.42;;;1.08;;
49948;SDS011;35840;45.982;8.890;2022-11-20T00:58:34;1.55;;;0.80;;
49948;SDS011;35840;45.982;8.890;2022-11-20T01:01:06;1.13;;;0.88;;
49948;SDS011;35840;45.982;8.890;2022-11-20T01:06:10;1.30;;;0.85;;
49948;SDS011;35840;45.982;8.890;2022-11-20T01:08:48;0.73;;;0.52;;
49948;SDS011;35840;45.982;8.890;2022-11-20T01:11:18;1.58;;;0.65;;
49948;SDS011;35840;45.982;8.890;2022-11-20T01:13:47;1.63;;;0.95;;
49948;SDS011;35840;45.982;8.890;2022-11-20T01:16:16;1.02;;;0.50;;
49948;SDS011;35840;45.982;8.890;2022-11-20T01:18:58;0.82;;;0.50;;
49948;SDS011;35840;45.982;8.890;2022-11-20T01:24:00;1.58;;;0.57;;
49948;SDS011;35840;45.982;8.890;2022-11-20T01:26:28;0.82;;;0.57;;
49948;SDS011;35840;45.982;8.890;2022-11-20T01:28:57;1.88;;;0.85;;
49948;SDS011;35840;45.982;8.890;2022-11-20T01:31:31;0.70;;;0.63;;
49948;SDS011;35840;45.982;8.890;2022-11-20T01:34:03;1.02;;;0.70;;
49948;SDS011;35840;45.982;8.890;2022-11-20T01:36:35;0.52;;;0.52;;
49948;SDS011;35840;45.982;8.890;2022-11-20T01:39:07;1.30;;;0.95;;
49948;SDS011;35840;45.982;8.890;2022-11-20T01:41:38;1.77;;;1.10;;
49948;SDS011;35840;45.982;8.890;2022-11-20T01:47:57;1.25;;;0.93;;
49948;SDS011;35840;45.982;8.890;2022-11-20T01:50:22;1.80;;;0.82;;
49948;SDS011;35840;45.982;8.890;2022-11-20T01:52:56;2.97;;;1.23;;
49948;SDS011;35840;45.982;8.890;2022-11-20T01:55:29;3.30;;;1.10;;
49948;SDS011;35840;45.982;8.890;2022-11-20T01:57:59;1.33;;;1.00;;
49948;SDS011;35840;45.982;8.890;2022-11-20T02:00:27;1.63;;;1.10;;
49948;SDS011;35840;45.982;8.890;2022-11-20T02:02:58;2.58;;;1.42;;
49948;SDS011;35840;45.982;8.890;2022-11-20T02:05:34;1.90;;;1.45;;
49948;SDS011;35840;45.982;8.890;2022-11-20T02:08:05;2.10;;;1.38;;
49948;SDS011;35840;45.982;8.890;2022-11-20T02:10:34;1.90;;;1.25;;
49948;SDS011;35840;45.982;8.890;2022-11-20T02:13:01;3.00;;;1.05;;
49948;SDS011;35840;45.982;8.890;2022-11-20T02:15:47;5.55;;;1.60;;
49948;SDS011;35840;45.982;8.890;2022-11-20T02:18:16;1.83;;;0.90;;
49948;SDS011;35840;45.982;8.890;2022-11-20T02:20:45;1.70;;;1.30;;
49948;SDS011;35840;45.982;8.890;2022-11-20T02:23:28;3.60;;;1.20;;
49948;SDS011;35840;45.982;8.890;2022-11-20T02:25:58;1.48;;;1.35;;
49948;SDS011;35840;45.982;8.890;2022-11-20T02:28:28;1.17;;;1.08;;
49948;SDS011;35840;45.982;8.890;2022-11-20T02:30:55;1.08;;;0.60;;
49948;SDS011;35840;45.982;8.890;2022-11-20T02:33:21;1.15;;;0.82;;
49948;SDS011;35840;45.982;8.890;2022-11-20T02:35:48;0.90;;;0.70;;
49948;SDS011;35840;45.982;8.890;2022-11-20T02:38:15;1.05;;;0.63;;
49948;SDS011;35840;45.982;8.890;2022-11-20T02:40:41;1.98;;;0.85;;
49948;SDS011;35840;45.982;8.890;2022-11-20T02:43:09;1.63;;;1.00;;
49948;SDS011;35840;45.982;8.890;2022-11-20T02:45:36;1.20;;;0.80;;
49948;SDS011;35840;45.982;8.890;2022-11-20T02:48:03;1.27;;;0.50;;
49948;SDS011;35840;45.982;8.890;2022-11-20T02:50:30;1.23;;;0.70;;
49948;SDS011;35840;45.982;8.890;2022-11-20T02:52:57;0.73;;;0.63;;
49948;SDS011;35840;45.982;8.890;2022-11-20T02:55:23;1.27;;;0.90;;
49948;SDS011;35840;45.982;8.890;2022-11-20T02:57:50;2.00;;;0.70;;
49948;SDS011;35840;45.982;8.890;2022-11-20T03:00:17;0.60;;;0.60;;
49948;SDS011;35840;45.982;8.890;2022-11-20T03:02:43;0.73;;;0.47;;
49948;SDS011;35840;45.982;8.890;2022-11-20T03:05:10;0.55;;;0.50;;
49948;SDS011;35840;45.982;8.890;2022-11-20T03:07:37;0.85;;;0.45;;
49948;SDS011;35840;45.982;8.890;2022-11-20T03:10:04;0.77;;;0.77;;
49948;SDS011;35840;45.982;8.890;2022-11-20T03:12:31;0.85;;;0.73;;
49948;SDS011;35840;45.982;8.890;2022-11-20T03:14:58;0.40;;;0.40;;
49948;SDS011;35840;45.982;8.890;2022-11-20T03:17:25;1.25;;;0.63;;
49948;SDS011;35840;45.982;8.890;2022-11-20T03:19:51;1.40;;;0.60;;
49948;SDS011;35840;45.982;8.890;2022-11-20T03:22:18;0.73;;;0.50;;
49948;SDS011;35840;45.982;8.890;2022-11-20T03:24:44;2.72;;;0.60;;
49948;SDS011;35840;45.982;8.890;2022-11-20T03:27:11;0.80;;;0.40;;
49948;SDS011;35840;45.982;8.890;2022-11-20T03:29:38;0.73;;;0.40;;
49948;SDS011;35840;45.982;8.890;2022-11-20T03:32:04;0.40;;;0.40;;
49948;SDS011;35840;45.982;8.890;2022-11-20T03:34:31;0.32;;;0.32;;
49948;SDS011;35840;45.982;8.890;2022-11-20T03:36:58;0.30;;;0.30;;
49948;SDS011;35840;45.982;8.890;2022-11-20T03:39:25;0.47;;;0.25;;
49948;SDS011;35840;45.982;8.890;2022-11-20T03:41:52;0.25;;;0.25;;
49948;SDS011;35840;45.982;8.890;2022-11-20T03:44:20;0.30;;;0.30;;
49948;SDS011;35840;45.982;8.890;2022-11-20T03:46:47;1.27;;;1.13;;
49948;SDS011;35840;45.982;8.890;2022-11-20T03:49:14;0.73;;;0.35;;
49948;SDS011;35840;45.982;8.890;2022-11-20T03:51:41;0.30;;;0.30;;
49948;SDS011;35840;45.982;8.890;2022-11-20T03:54:07;1.02;;;0.50;;
49948;SDS011;35840;45.982;8.890;2022-11-20T03:56:35;0.75;;;0.40;;
49948;SDS011;35840;45.982;8.890;2022-11-20T03:59:03;0.95;;;0.43;;
49948;SDS011;35840;45.982;8.890;2022-11-20T04:01:33;5.13;;;1.38;;
49948;SDS011;35840;45.982;8.890;2022-11-20T04:04:03;0.65;;;0.65;;
49948;SDS011;35840;45.982;8.890;2022-11-20T04:06:35;0.65;;;0.50;;
49948;SDS011;35840;45.982;8.890;2022-11-20T04:09:04;0.50;;;0.30;;
49948;SDS011;35840;45.982;8.890;2022-11-20T04:11:32;0.50;;;0.40;;
49948;SDS011;35840;45.982;8.890;2022-11-20T04:14:01;0.75;;;0.60;;
49948;SDS011;35840;45.982;8.890;2022-11-20T04:16:30;2.45;;;0.60;;
49948;SDS011;35840;45.982;8.890;2022-11-20T04:19:03;4.65;;;0.50;;
49948;SDS011;35840;45.982;8.890;2022-11-20T04:21:32;0.40;;;0.40;;
49948;SDS011;35840;45.982;8.890;2022-11-20T04:23:58;0.60;;;0.45;;
49948;SDS011;35840;45.982;8.890;2022-11-20T04:26:26;0.73;;;0.50;;
49948;SDS011;35840;45.982;8.890;2022-11-20T04:28:54;1.10;;;0.38;;
49948;SDS011;35840;45.982;8.890;2022-11-20T04:31:22;1.50;;;0.60;;
49948;SDS011;35840;45.982;8.890;2022-11-20T04:33:51;1.25;;;0.50;;
49948;SDS011;35840;45.982;8.890;2022-11-20T04:36:20;1.17;;;0.55;;
49948;SDS011;35840;45.982;8.890;2022-11-20T04:38:58;0.68;;;0.40;;
49948;SDS011;35840;45.982;8.890;2022-11-20T04:41:31;1.30;;;0.60;;
49948;SDS011;35840;45.982;8.890;2022-11-20T04:43:59;0.95;;;0.52;;
49948;SDS011;35840;45.982;8.890;2022-11-20T04:46:32;0.60;;;0.50;;
49948;SDS011;35840;45.982;8.890;2022-11-20T04:49:01;5.50;;;0.45;;
49948;SDS011;35840;45.982;8.890;2022-11-20T04:51:28;1.27;;;0.40;;
49948;SDS011;35840;45.982;8.890;2022-11-20T04:53:55;0.90;;;0.77;;
49948;SDS011;35840;45.982;8.890;2022-11-20T04:56:22;0.68;;;0.68;;
49948;SDS011;35840;45.982;8.890;2022-11-20T04:58:49;1.27;;;0.38;;
49948;SDS011;35840;45.982;8.890;2022-11-20T05:01:17;0.40;;;0.40;;
49948;SDS011;35840;45.982;8.890;2022-11-20T05:03:46;0.38;;;0.38;;
49948;SDS011;35840;45.982;8.890;2022-11-20T05:06:14;0.73;;;0.40;;
49948;SDS011;35840;45.982;8.890;2022-11-20T05:08:41;0.40;;;0.40;;
49948;SDS011;35840;45.982;8.890;2022-11-20T05:11:09;1.98;;;0.30;;
49948;SDS011;35840;45.982;8.890;2022-11-20T05:13:37;7.22;;;1.17;;
49948;SDS011;35840;45.982;8.890;2022-11-20T05:16:06;0.43;;;0.38;;
49948;SDS011;35840;45.982;8.890;2022-11-20T05:18:38;1.88;;;0.50;;
49948;SDS011;35840;45.982;8.890;2022-11-20T05:21:06;0.40;;;0.30;;
49948;SDS011;35840;45.982;8.890;2022-11-20T05:23:34;0.95;;;0.32;;
49948;SDS011;35840;45.982;8.890;2022-11-20T05:26:02;0.25;;;0.25;;
49948;SDS011;35840;45.982;8.890;2022-11-20T05:28:29;0.35;;;0.30;;
49948;SDS011;35840;45.982;8.890;2022-11-20T05:31:04;0.38;;;0.30;;
49948;SDS011;35840;45.982;8.890;2022-11-20T05:33:45;0.30;;;0.30;;
49948;SDS011;35840;45.982;8.890;2022-11-20T05:36:14;0.85;;;0.70;;
49948;SDS011;35840;45.982;8.890;2022-11-20T05:38:41;0.40;;;0.40;;
49948;SDS011;35840;45.982;8.890;2022-11-20T05:41:12;1.15;;;0.50;;
49948;SDS011;35840;45.982;8.890;2022-11-20T05:43:41;0.25;;;0.25;;
49948;SDS011;35840;45.982;8.890;2022-11-20T05:46:10;0.63;;;0.40;;
49948;SDS011;35840;45.982;8.890;2022-11-20T05:48:39;0.40;;;0.40;;
49948;SDS011;35840;45.982;8.890;2022-11-20T05:51:07;0.30;;;0.30;;
49948;SDS011;35840;45.982;8.890;2022-11-20T05:53:35;0.30;;;0.30;;
49948;SDS011;35840;45.982;8.890;2022-11-20T05:56:05;0.38;;;0.38;;
49948;SDS011;35840;45.982;8.890;2022-11-20T05:58:33;0.40;;;0.40;;
49948;SDS011;35840;45.982;8.890;2022-11-20T06:01:10;1.95;;;0.30;;
49948;SDS011;35840;45.982;8.890;2022-11-20T06:03:38;0.80;;;0.35;;
49948;SDS011;35840;45.982;8.890;2022-11-20T06:06:06;0.30;;;0.30;;
49948;SDS011;35840;45.982;8.890;2022-11-20T06:08:33;0.80;;;0.40;;
49948;SDS011;35840;45.982;8.890;2022-11-20T06:11:07;0.30;;;0.30;;
49948;SDS011;35840;45.982;8.890;2022-11-20T06:13:35;1.33;;;0.28;;
49948;SDS011;35840;45.982;8.890;2022-11-20T06:16:07;0.50;;;0.40;;
49948;SDS011;35840;45.982;8.890;2022-11-20T06:18:34;0.40;;;0.40;;
49948;SDS011;35840;45.982;8.890;2022-11-20T06:21:02;0.30;;;0.30;;
49948;SDS011;35840;45.982;8.890;2022-11-20T06:23:30;0.40;;;0.40;;
49948;SDS011;35840;45.982;8.890;2022-11-20T06:26:00;0.20;;;0.20;;
49948;SDS011;35840;45.982;8.890;2022-11-20T06:28:34;0.63;;;0.40;;
49948;SDS011;35840;45.982;8.890;2022-11-20T06:31:01;1.10;;;0.40;;
49948;SDS011;35840;45.982;8.890;2022-11-20T06:33:29;0.98;;;0.35;;
49948;SDS011;35840;45.982;8.890;2022-11-20T06:35:56;4.82;;;1.25;;
49948;SDS011;35840;45.982;8.890;2022-11-20T06:38:28;1.45;;;0.40;;
49948;SDS011;35840;45.982;8.890;2022-11-20T06:40:55;1.20;;;0.43;;
49948;SDS011;35840;45.982;8.890;2022-11-20T06:43:22;0.30;;;0.30;;
49948;SDS011;35840;45.982;8.890;2022-11-20T06:45:52;0.22;;;0.22;;
49948;SDS011;35840;45.982;8.890;2022-11-20T06:48:20;0.50;;;0.50;;
49948;SDS011;35840;45.982;8.890;2022-11-20T06:50:47;1.30;;;0.30;;
49948;SDS011;35840;45.982;8.890;2022-11-20T06:53:14;0.93;;;0.43;;
49948;SDS011;35840;45.982;8.890;2022-11-20T06:55:44;0.75;;;0.60;;
49948;SDS011;35840;45.982;8.890;2022-11-20T06:58:12;2.70;;;0.65;;
49948;SDS011;35840;45.982;8.890;2022-11-20T07:00:40;2.15;;;0.43;;
49948;SDS011;35840;45.982;8.890;2022-11-20T07:03:08;2.65;;;0.50;;
49948;SDS011;35840;45.982;8.890;2022-11-20T07:05:36;0.50;;;0.47;;
49948;SDS011;35840;45.982;8.890;2022-11-20T07:08:04;1.00;;;0.47;;
49948;SDS011;35840;45.982;8.890;2022-11-20T07:10:31;1.00;;;0.50;;
49948;SDS011;35840;45.982;8.890;2022-11-20T07:12:58;1.80;;;0.50;;
49948;SDS011;35840;45.982;8.890;2022-11-20T07:15:25;0.40;;;0.22;;
49948;SDS011;35840;45.982;8.890;2022-11-20T07:17:52;1.10;;;0.50;;
49948;SDS011;35840;45.982;8.890;2022-11-20T07:20:19;0.30;;;0.30;;
49948;SDS011;35840;45.982;8.890;2022-11-20T07:22:45;1.60;;;0.40;;
49948;SDS011;35840;45.982;8.890;2022-11-20T07:25:12;1.05;;;0.40;;
49948;SDS011;35840;45.982;8.890;2022-11-20T07:27:39;6.78;;;0.80;;
49948;SDS011;35840;45.982;8.890;2022-11-20T07:30:06;2.13;;;0.40;;
49948;SDS011;35840;45.982;8.890;2022-11-20T07:32:33;0.68;;;0.30;;
49948;SDS011;35840;45.982;8.890;2022-11-20T07:34:59;0.95;;;0.40;;
49948;SDS011;35840;45.982;8.890;2022-11-20T07:37:26;2.00;;;0.45;;
49948;SDS011;35840;45.982;8.890;2022-11-20T07:39:52;0.30;;;0.30;;
49948;SDS011;35840;45.982;8.890;2022-11-20T07:42:19;0.60;;;0.38;;
49948;SDS011;35840;45.982;8.890;2022-11-20T07:44:48;1.02;;;0.90;;
49948;SDS011;35840;45.982;8.890;2022-11-20T07:47:15;0.30;;;0.30;;
49948;SDS011;35840;45.982;8.890;2022-11-20T07:49:42;0.57;;;0.55;;
49948;SDS011;35840;45.982;8.890;2022-11-20T07:52:09;0.40;;;0.40;;
49948;SDS011;35840;45.982;8.890;2022-11-20T07:54:35;0.40;;;0.40;;
49948;SDS011;35840;45.982;8.890;2022-11-20T07:57:02;1.67;;;0.68;;
49948;SDS011;35840;45.982;8.890;2022-11-20T07:59:29;2.92;;;0.55;;
49948;SDS011;35840;45.982;8.890;2022-11-20T08:01:55;0.47;;;0.47;;
49948;SDS011;35840;45.982;8.890;2022-11-20T08:04:22;4.13;;;0.50;;
49948;SDS011;35840;45.982;8.890;2022-11-20T08:06:51;0.57;;;0.50;;
49948;SDS011;35840;45.982;8.890;2022-11-20T08:09:18;2.25;;;0.93;;
49948;SDS011;35840;45.982;8.890;2022-11-20T08:11:45;3.05;;;1.23;;
49948;SDS011;35840;45.982;8.890;2022-11-20T08:14:30;1.63;;;1.00;;
49948;SDS011;35840;45.982;8.890;2022-11-20T08:16:57;0.65;;;0.65;;
49948;SDS011;35840;45.982;8.890;2022-11-20T08:19:25;1.83;;;0.93;;
49948;SDS011;35840;45.982;8.890;2022-11-20T08:21:52;1.50;;;0.90;;
49948;SDS011;35840;45.982;8.890;2022-11-20T08:24:19;3.28;;;0.98;;
49948;SDS011;35840;45.982;8.890;2022-11-20T08:26:45;1.75;;;1.00;;
49948;SDS011;35840;45.982;8.890;2022-11-20T08:29:12;1.23;;;1.00;;
49948;SDS011;35840;45.982;8.890;2022-11-20T08:31:39;2.75;;;1.42;;
49948;SDS011;35840;45.982;8.890;2022-11-20T08:34:06;1.33;;;1.20;;
49948;SDS011;35840;45.982;8.890;2022-11-20T08:36:35;1.50;;;1.40;;
49948;SDS011;35840;45.982;8.890;2022-11-20T08:39:02;1.23;;;1.13;;
49948;SDS011;35840;45.982;8.890;2022-11-20T08:41:30;1.30;;;1.10;;
49948;SDS011;35840;45.982;8.890;2022-11-20T08:44:00;2.65;;;1.38;;
49948;SDS011;35840;45.982;8.890;2022-11-20T08:46:37;2.22;;;1.20;;
49948;SDS011;35840;45.982;8.890;2022-11-20T08:49:10;1.50;;;1.00;;
49948;SDS011;35840;45.982;8.890;2022-11-20T08:51:38;1.95;;;0.90;;
49948;SDS011;35840;45.982;8.890;2022-11-20T08:54:06;1.25;;;0.90;;
49948;SDS011;35840;45.982;8.890;2022-11-20T08:56:33;1.40;;;1.30;;
49948;SDS011;35840;45.982;8.890;2022-11-20T08:59:00;1.95;;;1.60;;
49948;SDS011;35840;45.982;8.890;2022-11-20T09:01:47;3.08;;;1.25;;
49948;SDS011;35840;45.982;8.890;2022-11-20T09:04:13;1.80;;;1.60;;
49948;SDS011;35840;45.982;8.890;2022-11-20T09:06:40;6.78;;;1.80;;
49948;SDS011;35840;45.982;8.890;2022-11-20T09:09:07;2.30;;;1.30;;
49948;SDS011;35840;45.982;8.890;2022-11-20T09:11:34;1.77;;;1.20;;
49948;SDS011;35840;45.982;8.890;2022-11-20T09:14:02;1.98;;;1.15;;
49948;SDS011;35840;45.982;8.890;2022-11-20T09:16:30;1.30;;;1.20;;
49948;SDS011;35840;45.982;8.890;2022-11-20T09:18:57;1.63;;;1.02;;
49948;SDS011;35840;45.982;8.890;2022-11-20T09:21:44;1.83;;;1.30;;
49948;SDS011;35840;45.982;8.890;2022-11-20T09:24:11;2.60;;;1.35;;
49948;SDS011;35840;45.982;8.890;2022-11-20T09:26:37;1.02;;;0.90;;
49948;SDS011;35840;45.982;8.890;2022-11-20T09:29:04;1.77;;;1.15;;
49948;SDS011;35840;45.982;8.890;2022-11-20T09:31:31;1.13;;;1.00;;
49948;SDS011;35840;45.982;8.890;2022-11-20T09:33:58;2.63;;;1.10;;
49948;SDS011;35840;45.982;8.890;2022-11-20T09:36:24;1.25;;;0.73;;
49948;SDS011;35840;45.982;8.890;2022-11-20T09:38:51;1.13;;;0.70;;
49948;SDS011;35840;45.982;8.890;2022-11-20T09:52:37;2.75;;;1.13;;
49948;SDS011;35840;45.982;8.890;2022-11-20T09:55:16;1.27;;;1.13;;
49948;SDS011;35840;45.982;8.890;2022-11-20T09:57:44;2.20;;;0.90;;
49948;SDS011;35840;45.982;8.890;2022-11-20T10:00:14;0.82;;;0.77;;
49948;SDS011;35840;45.982;8.890;2022-11-20T10:05:51;1.55;;;1.00;;
49948;SDS011;35840;45.982;8.890;2022-11-20T10:11:28;1.00;;;0.80;;
49948;SDS011;35840;45.982;8.890;2022-11-20T10:30:28;0.63;;;0.47;;
49948;SDS011;35840;45.982;8.890;2022-11-20T10:33:13;0.50;;;0.50;;
49948;SDS011;35840;45.982;8.890;2022-11-20T10:35:52;1.23;;;0.65;;
49948;SDS011;35840;45.982;8.890;2022-11-20T10:38:43;1.20;;;1.08;;
49948;SDS011;35840;45.982;8.890;2022-11-20T10:41:21;0.85;;;0.60;;
49948;SDS011;35840;45.982;8.890;2022-11-20T10:44:16;0.20;;;0.20;;
49948;SDS011;35840;45.982;8.890;2022-11-20T10:47:05;0.40;;;0.38;;
49948;SDS011;35840;45.982;8.890;2022-11-20T10:49:39;0.47;;;0.47;;
49948;SDS011;35840;45.982;8.890;2022-11-20T10:55:17;0.60;;;0.60;;
49948;SDS011;35840;45.982;8.890;2022-11-20T10:58:05;0.50;;;0.50;;
49948;SDS011;35840;45.982;8.890;2022-11-20T11:00:38;0.77;;;0.40;;
49948;SDS011;35840;45.982;8.890;2022-11-20T11:08:28;1.00;;;0.60;;
49948;SDS011;35840;45.982;8.890;2022-11-20T11:11:02;0.50;;;0.50;;
49948;SDS011;35840;45.982;8.890;2022-11-20T11:14:03;0.68;;;0.50;;
49948;SDS011;35840;45.982;8.890;2022-11-20T11:16:48;0.60;;;0.60;;
49948;SDS011;35840;45.982;8.890;2022-11-20T11:19:17;0.45;;;0.30;;
49948;SDS011;35840;45.982;8.890;2022-11-20T11:21:47;0.47;;;0.47;;
49948;SDS011;35840;45.982;8.890;2022-11-20T11:24:22;0.75;;;0.50;;
49948;SDS011;35840;45.982;8.890;2022-11-20T11:27:12;0.45;;;0.45;;
49948;SDS011;35840;45.982;8.890;2022-11-20T11:29:43;0.43;;;0.40;;
49948;SDS011;35840;45.982;8.890;2022-11-20T11:32:12;0.40;;;0.40;;
49948;SDS011;35840;45.982;8.890;2022-11-20T11:34:39;0.45;;;0.45;;
49948;SDS011;35840;45.982;8.890;2022-11-20T11:37:13;0.60;;;0.50;;
49948;SDS011;35840;45.982;8.890;2022-11-20T11:39:44;1.08;;;0.47;;
49948;SDS011;35840;45.982;8.890;2022-11-20T11:42:29;0.50;;;0.50;;
49948;SDS011;35840;45.982;8.890;2022-11-20T11:44:59;0.85;;;0.70;;
49948;SDS011;35840;45.982;8.890;2022-11-20T11:47:36;1.00;;;0.43;;
49948;SDS011;35840;45.982;8.890;2022-11-20T11:58:38;0.50;;;0.30;;
49948;SDS011;35840;45.982;8.890;2022-11-20T12:03:53;0.40;;;0.20;;
49948;SDS011;35840;45.982;8.890;2022-11-20T12:06:28;0.50;;;0.30;;
49948;SDS011;35840;45.982;8.890;2022-11-20T12:09:05;2.15;;;0.43;;
49948;SDS011;35840;45.982;8.890;2022-11-20T12:17:08;0.30;;;0.30;;
49948;SDS011;35840;45.982;8.890;2022-11-20T12:19:38;0.65;;;0.30;;
49948;SDS011;35840;45.982;8.890;2022-11-20T12:22:07;0.10;;;0.10;;
49948;SDS011;35840;45.982;8.890;2022-11-20T12:24:58;0.55;;;0.30;;
49948;SDS011;35840;45.982;8.890;2022-11-20T12:30:12;1.05;;;1.00;;
49948;SDS011;35840;45.982;8.890;2022-11-20T12:43:21;0.50;;;0.50;;
49948;SDS011;35840;45.982;8.890;2022-11-20T12:57:46;0.20;;;0.20;;
49948;SDS011;35840;45.982;8.890;2022-11-20T13:00:36;0.60;;;0.30;;
49948;SDS011;35840;45.982;8.890;2022-11-20T13:08:34;0.47;;;0.47;;
49948;SDS011;35840;45.982;8.890;2022-11-20T13:16:16;0.47;;;0.38;;
49948;SDS011;35840;45.982;8.890;2022-11-20T13:18:51;0.80;;;0.43;;
49948;SDS011;35840;45.982;8.890;2022-11-20T13:21:20;0.90;;;0.50;;
49948;SDS011;35840;45.982;8.890;2022-11-20T13:23:49;0.40;;;0.40;;
49948;SDS011;35840;45.982;8.890;2022-11-20T13:26:20;0.73;;;0.40;;
49948;SDS011;35840;45.982;8.890;2022-11-20T13:31:48;0.82;;;0.40;;
49948;SDS011;35840;45.982;8.890;2022-11-20T13:34:26;1.98;;;0.50;;
49948;SDS011;35840;45.982;8.890;2022-11-20T13:36:54;1.98;;;0.40;;
49948;SDS011;35840;45.982;8.890;2022-11-20T13:39:27;0.22;;;0.22;;
49948;SDS011;35840;45.982;8.890;2022-11-20T13:42:00;1.70;;;1.08;;
49948;SDS011;35840;45.982;8.890;2022-11-20T13:44:39;0.60;;;0.38;;
49948;SDS011;35840;45.982;8.890;2022-11-20T13:47:26;1.00;;;0.70;;
49948;SDS011;35840;45.982;8.890;2022-11-20T13:49:55;0.68;;;0.43;;
49948;SDS011;35840;45.982;8.890;2022-11-20T13:58:05;0.30;;;0.30;;
49948;SDS011;35840;45.982;8.890;2022-11-20T14:00:51;0.60;;;0.60;;
49948;SDS011;35840;45.982;8.890;2022-11-20T14:03:29;0.55;;;0.30;;
49948;SDS011;35840;45.982;8.890;2022-11-20T14:06:25;0.35;;;0.35;;
49948;SDS011;35840;45.982;8.890;2022-11-20T14:08:53;0.80;;;0.40;;
49948;SDS011;35840;45.982;8.890;2022-11-20T14:11:25;1.10;;;0.55;;
49948;SDS011;35840;45.982;8.890;2022-11-20T14:14:04;0.30;;;0.30;;
49948;SDS011;35840;45.982;8.890;2022-11-20T14:16:32;0.55;;;0.50;;
49948;SDS011;35840;45.982;8.890;2022-11-20T14:21:46;0.63;;;0.63;;
49948;SDS011;35840;45.982;8.890;2022-11-20T14:24:22;1.40;;;1.00;;
49948;SDS011;35840;45.982;8.890;2022-11-20T14:26:51;1.10;;;0.75;;
49948;SDS011;35840;45.982;8.890;2022-11-20T14:29:19;0.85;;;0.82;;
49948;SDS011;35840;45.982;8.890;2022-11-20T14:31:53;0.88;;;0.88;;
49948;SDS011;35840;45.982;8.890;2022-11-20T14:34:22;0.45;;;0.40;;
49948;SDS011;35840;45.982;8.890;2022-11-20T14:36:53;0.40;;;0.40;;
49948;SDS011;35840;45.982;8.890;2022-11-20T14:39:31;0.40;;;0.30;;
49948;SDS011;35840;45.982;8.890;2022-11-20T14:42:00;1.15;;;0.65;;
49948;SDS011;35840;45.982;8.890;2022-11-20T14:44:33;0.50;;;0.40;;
49948;SDS011;35840;45.982;8.890;2022-11-20T14:47:04;2.38;;;0.93;;
49948;SDS011;35840;45.982;8.890;2022-11-20T14:49:31;0.60;;;0.52;;
49948;SDS011;35840;45.982;8.890;2022-11-20T14:52:02;0.50;;;0.50;;
49948;SDS011;35840;45.982;8.890;2022-11-20T14:54:44;0.73;;;0.40;;
49948;SDS011;35840;45.982;8.890;2022-11-20T14:57:21;0.40;;;0.40;;
49948;SDS011;35840;45.982;8.890;2022-11-20T15:02:44;0.47;;;0.43;;
49948;SDS011;35840;45.982;8.890;2022-11-20T15:05:12;1.33;;;0.65;;
49948;SDS011;35840;45.982;8.890;2022-11-20T15:07:41;0.90;;;0.75;;
49948;SDS011;35840;45.982;8.890;2022-11-20T15:10:13;0.73;;;0.63;;
49948;SDS011;35840;45.982;8.890;2022-11-20T15:12:52;0.65;;;0.50;;
49948;SDS011;35840;45.982;8.890;2022-11-20T15:16:14;0.63;;;0.57;;
49948;SDS011;35840;45.982;8.890;2022-11-20T15:18:12;0.52;;;0.52;;
49948;SDS011;35840;45.982;8.890;2022-11-20T15:20:41;2.13;;;1.25;;
49948;SDS011;35840;45.982;8.890;2022-11-20T15:23:10;1.13;;;0.85;;
49948;SDS011;35840;45.982;8.890;2022-11-20T15:25:39;0.80;;;0.77;;
49948;SDS011;35840;45.982;8.890;2022-11-20T15:28:40;0.98;;;0.80;;
49948;SDS011;35840;45.982;8.890;2022-11-20T15:31:14;1.20;;;0.80;;
49948;SDS011;35840;45.982;8.890;2022-11-20T15:33:45;0.93;;;0.77;;
49948;SDS011;35840;45.982;8.890;2022-11-20T15:36:12;1.15;;;0.80;;
49948;SDS011;35840;45.982;8.890;2022-11-20T15:38:39;1.13;;;0.80;;
49948;SDS011;35840;45.982;8.890;2022-11-20T15:41:07;1.52;;;1.15;;
49948;SDS011;35840;45.982;8.890;2022-11-20T15:43:34;2.85;;;2.17;;
49948;SDS011;35840;45.982;8.890;2022-11-20T15:46:15;2.92;;;2.10;;
49948;SDS011;35840;45.982;8.890;2022-11-20T15:48:44;4.00;;;1.77;;
49948;SDS011;35840;45.982;8.890;2022-11-20T15:53:54;2.85;;;1.80;;
49948;SDS011;35840;45.982;8.890;2022-11-20T15:56:22;4.53;;;2.60;;
49948;SDS011;35840;45.982;8.890;2022-11-20T15:58:49;2.97;;;1.95;;
49948;SDS011;35840;45.982;8.890;2022-11-20T16:01:17;5.72;;;2.60;;
49948;SDS011;35840;45.982;8.890;2022-11-20T16:03:47;7.13;;;4.65;;
49948;SDS011;35840;45.982;8.890;2022-11-20T16:06:14;3.95;;;2.42;;
49948;SDS011;35840;45.982;8.890;2022-11-20T16:08:42;2.42;;;1.33;;
49948;SDS011;35840;45.982;8.890;2022-11-20T16:11:13;3.42;;;1.23;;
49948;SDS011;35840;45.982;8.890;2022-11-20T16:13:40;1.88;;;1.33;;
49948;SDS011;35840;45.982;8.890;2022-11-20T16:16:31;1.67;;;1.15;;
49948;SDS011;35840;45.982;8.890;2022-11-20T16:19:00;1.20;;;0.98;;
49948;SDS011;35840;45.982;8.890;2022-11-20T16:21:27;1.00;;;0.90;;
49948;SDS011;35840;45.982;8.890;2022-11-20T16:23:57;1.65;;;0.95;;
49948;SDS011;35840;45.982;8.890;2022-11-20T16:26:28;4.30;;;2.13;;
49948;SDS011;35840;45.982;8.890;2022-11-20T16:28:55;1.10;;;0.90;;
49948;SDS011;35840;45.982;8.890;2022-11-20T16:31:24;3.38;;;1.10;;
49948;SDS011;35840;45.982;8.890;2022-11-20T16:33:55;1.88;;;1.10;;
49948;SDS011;35840;45.982;8.890;2022-11-20T16:36:24;6.13;;;3.22;;
49948;SDS011;35840;45.982;8.890;2022-11-20T16:38:54;1.83;;;1.30;;
49948;SDS011;35840;45.982;8.890;2022-11-20T16:41:22;2.20;;;1.45;;
49948;SDS011;35840;45.982;8.890;2022-11-20T16:43:53;3.30;;;2.42;;
49948;SDS011;35840;45.982;8.890;2022-11-20T16:46:24;4.03;;;2.95;;
49948;SDS011;35840;45.982;8.890;2022-11-20T16:48:52;4.38;;;3.33;;
49948;SDS011;35840;45.982;8.890;2022-11-20T16:51:23;2.08;;;1.20;;
49948;SDS011;35840;45.982;8.890;2022-11-20T16:53:51;2.65;;;1.83;;
49948;SDS011;35840;45.982;8.890;2022-11-20T16:56:22;4.43;;;2.72;;
49948;SDS011;35840;45.982;8.890;2022-11-20T16:58:50;3.08;;;2.67;;
49948;SDS011;35840;45.982;8.890;2022-11-20T17:01:19;5.00;;;4.07;;
49948;SDS011;35840;45.982;8.890;2022-11-20T17:03:57;5.20;;;3.72;;
49948;SDS011;35840;45.982;8.890;2022-11-20T17:06:27;4.88;;;3.28;;
49948;SDS011;35840;45.982;8.890;2022-11-20T17:08:55;5.18;;;2.80;;